createdAt,value
2023-04-07T00:03:41.898Z,15.37
2023-04-07T00:08:46.127Z,15.87
2023-04-07T00:13:49.376Z,14.70
2023-04-07T00:18:52.883Z,13.20
2023-04-07T00:23:56.491Z,12.93
2023-04-07T00:29:00.340Z,16.33
2023-04-07T00:34:03.697Z,17.80
2023-04-07T00:39:06.906Z,12.60
2023-04-07T00:44:10.526Z,14.87
2023-04-07T00:49:13.997Z,18.70
2023-04-07T00:54:18.678Z,14.47
2023-04-07T00:59:22.443Z,15.77
2023-04-07T01:04:33.005Z,10.80
2023-04-07T01:09:46.728Z,14.37
2023-04-07T01:14:59.188Z,16.33
2023-04-07T01:20:09.123Z,18.93
2023-04-07T01:25:52.418Z,15.00
2023-04-07T01:30:58.793Z,16.30
2023-04-07T01:36:03.412Z,13.23
2023-04-07T01:41:09.054Z,10.70
2023-04-07T01:46:12.398Z,14.83
2023-04-07T01:51:19.347Z,12.47
2023-04-07T01:56:22.628Z,9.70
2023-04-07T02:01:26.522Z,12.50
2023-04-07T02:06:43.136Z,12.33
2023-04-07T02:11:47.048Z,12.03
2023-04-07T02:16:51.574Z,10.43
2023-04-07T02:21:55.156Z,13.87
2023-04-07T02:26:59.076Z,12.80
2023-04-07T02:32:02.340Z,11.63
2023-04-07T02:37:05.638Z,16.10
2023-04-07T02:42:09.036Z,14.03
2023-04-07T02:47:12.716Z,17.00
2023-04-07T02:52:16.235Z,13.47
2023-04-07T02:57:19.891Z,14.57
2023-04-07T03:02:23.640Z,14.80
2023-04-07T03:07:27.294Z,14.13
2023-04-07T03:12:30.972Z,14.23
2023-04-07T03:17:34.682Z,16.07
2023-04-07T03:22:38.032Z,16.97
2023-04-07T03:27:41.321Z,14.53
2023-04-07T03:32:45.150Z,14.83
2023-04-07T03:37:48.404Z,17.87
2023-04-07T03:42:51.732Z,17.00
2023-04-07T03:47:55.034Z,17.37
2023-04-07T03:52:58.286Z,17.57
2023-04-07T03:58:01.737Z,21.03
2023-04-07T04:03:05.477Z,21.30
2023-04-07T04:08:09.183Z,17.73
2023-04-07T04:13:12.492Z,22.80
2023-04-07T04:18:15.973Z,20.97
2023-04-07T04:23:19.340Z,19.40
2023-04-07T04:28:22.556Z,23.20
2023-04-07T04:33:26.182Z,21.93
2023-04-07T04:38:29.432Z,15.57
2023-04-07T04:43:32.694Z,19.10
2023-04-07T04:48:36.343Z,18.80
2023-04-07T04:53:39.746Z,24.60
2023-04-07T04:58:46.761Z,19.20
2023-04-07T05:03:50.939Z,20.00
2023-04-07T05:08:54.758Z,17.27
2023-04-07T05:13:58.023Z,23.20
2023-04-07T05:19:01.388Z,23.20
2023-04-07T05:24:04.902Z,26.80
2023-04-07T05:29:08.662Z,28.50
2023-04-07T05:34:12.011Z,29.70
2023-04-07T05:39:15.355Z,23.33
2023-04-07T05:44:18.651Z,29.43
2023-04-07T05:49:21.932Z,24.60
2023-04-07T05:54:25.495Z,23.07
2023-04-07T05:59:28.791Z,27.30
2023-04-07T06:04:33.596Z,27.87
2023-04-07T06:09:37.065Z,28.57
2023-04-07T06:14:40.292Z,26.97
2023-04-07T06:19:43.811Z,23.57
2023-04-07T06:24:47.304Z,30.23
2023-04-07T06:29:50.972Z,30.87
2023-04-07T06:34:54.413Z,29.53
2023-04-07T06:39:57.798Z,30.10
2023-04-07T06:45:01.126Z,31.73
2023-04-07T06:50:04.796Z,29.17
2023-04-07T06:55:08.580Z,25.97
2023-04-07T07:00:12.447Z,27.53
2023-04-07T07:05:15.941Z,24.30
2023-04-07T07:10:21.156Z,26.23
2023-04-07T07:15:24.825Z,27.07
2023-04-07T07:20:28.216Z,25.97
2023-04-07T07:25:31.365Z,28.87
2023-04-07T07:30:34.756Z,29.33
2023-04-07T07:35:39.140Z,22.60
2023-04-07T07:40:42.393Z,25.73
2023-04-07T07:45:46.046Z,28.23
2023-04-07T07:50:49.570Z,30.10
2023-04-07T07:55:53.183Z,25.77
2023-04-07T08:00:57.151Z,26.73
2023-04-07T08:06:01.539Z,24.20
2023-04-07T08:11:05.279Z,32.67
2023-04-07T08:16:08.753Z,28.60
2023-04-07T08:21:14.485Z,27.00
2023-04-07T08:26:18.171Z,25.03
2023-04-07T08:31:21.475Z,23.10
2023-04-07T08:36:26.815Z,30.03
2023-04-07T08:41:43.125Z,29.03
2023-04-07T08:46:47.953Z,25.60
2023-04-07T08:51:53.614Z,24.43
2023-04-07T08:56:57.806Z,29.43
2023-04-07T09:02:01.341Z,26.83
2023-04-07T09:07:04.745Z,29.07
2023-04-07T09:12:08.079Z,26.63
2023-04-07T09:17:12.061Z,30.07
2023-04-07T09:22:15.765Z,25.03
2023-04-07T09:27:20.023Z,27.40
2023-04-07T09:32:39.724Z,27.60
2023-04-07T09:37:43.133Z,30.63
2023-04-07T09:42:48.715Z,29.03
2023-04-07T09:47:52.279Z,30.57
2023-04-07T09:52:55.955Z,28.73
2023-04-07T09:57:59.949Z,29.17
2023-04-07T10:03:04.796Z,30.00
2023-04-07T10:08:08.396Z,32.93
2023-04-07T10:13:12.716Z,29.90
2023-04-07T10:18:18.823Z,31.97
2023-04-07T10:23:26.834Z,31.87
2023-04-07T10:28:32.411Z,35.50
2023-04-07T10:33:52.955Z,32.33
2023-04-07T10:39:08.236Z,27.67
2023-04-07T10:44:43.916Z,32.67
2023-04-07T10:50:20.185Z,34.13
2023-04-07T10:55:31.331Z,27.30
2023-04-07T11:00:34.882Z,31.63
2023-04-07T11:05:39.341Z,25.63
2023-04-07T11:10:48.834Z,33.93
2023-04-07T11:15:53.044Z,28.27
2023-04-07T11:20:59.699Z,27.93
2023-04-07T11:26:03.619Z,26.70
2023-04-07T11:31:07.317Z,29.50
2023-04-07T11:36:10.595Z,29.93
2023-04-07T11:41:16.409Z,28.53
2023-04-07T11:46:19.960Z,29.07
2023-04-07T11:51:28.591Z,28.90
2023-04-07T11:56:47.082Z,31.13
2023-04-07T12:01:52.708Z,29.97
2023-04-07T12:07:10.888Z,32.90
2023-04-07T12:12:14.777Z,35.13
2023-04-07T12:17:22.636Z,30.00
2023-04-07T12:22:26.271Z,29.80
2023-04-07T12:27:39.956Z,30.87
2023-04-07T12:32:46.418Z,31.57
2023-04-07T12:37:50.139Z,29.60
2023-04-07T12:42:53.609Z,30.00
2023-04-07T12:47:57.223Z,28.80
2023-04-07T12:53:03.814Z,32.50
2023-04-07T12:58:08.214Z,28.93
2023-04-07T13:03:12.139Z,25.33
2023-04-07T13:08:15.590Z,27.37
2023-04-07T13:13:18.730Z,25.27
2023-04-07T13:18:22.196Z,33.13
2023-04-07T13:23:26.329Z,33.07
2023-04-07T13:28:29.777Z,30.77
2023-04-07T13:33:32.997Z,30.27
2023-04-07T13:38:36.274Z,27.13
2023-04-07T13:43:39.886Z,39.27
2023-04-07T13:48:43.137Z,33.73
2023-04-07T13:53:47.235Z,40.70
2023-04-07T13:58:50.990Z,34.40
2023-04-07T14:03:54.732Z,39.83
2023-04-07T14:08:59.509Z,35.27
2023-04-07T14:14:02.850Z,37.77
2023-04-07T14:19:07.373Z,38.50
2023-04-07T14:24:11.008Z,36.20
2023-04-07T14:29:15.093Z,36.80
2023-04-07T14:34:18.572Z,34.53
2023-04-07T14:39:23.284Z,41.33
2023-04-07T14:44:26.785Z,35.10
2023-04-07T14:49:30.008Z,32.83
2023-04-07T14:54:33.630Z,32.80
2023-04-07T14:59:37.008Z,35.03
2023-04-07T15:04:40.400Z,34.73
2023-04-07T15:09:43.728Z,31.53
2023-04-07T15:14:46.877Z,38.57
2023-04-07T15:19:50.378Z,37.27
2023-04-07T15:24:53.694Z,35.63
2023-04-07T15:29:57.197Z,42.80
2023-04-07T15:35:00.430Z,36.40
2023-04-07T15:40:03.632Z,40.03
2023-04-07T15:45:08.374Z,36.30
2023-04-07T15:50:11.995Z,39.10
2023-04-07T15:55:15.689Z,33.97
2023-04-07T16:00:19.445Z,35.27
2023-04-07T16:05:22.975Z,39.97
2023-04-07T16:10:27.625Z,39.87
2023-04-07T16:15:40.265Z,36.37
2023-04-07T16:20:45.086Z,41.73
2023-04-07T16:25:48.399Z,36.23
2023-04-07T16:30:51.688Z,37.17
2023-04-07T16:35:55.052Z,38.83
2023-04-07T16:41:04.528Z,45.07
2023-04-07T16:46:08.470Z,40.53
2023-04-07T16:51:16.191Z,38.03
2023-04-07T16:56:24.372Z,34.63
2023-04-07T17:01:32.522Z,35.40
2023-04-07T17:06:35.848Z,35.03
2023-04-07T17:11:41.749Z,36.53
2023-04-07T17:16:44.988Z,35.37
2023-04-07T17:21:49.144Z,37.30
2023-04-07T17:26:53.699Z,32.43
2023-04-07T17:31:57.803Z,31.83
2023-04-07T17:37:01.327Z,26.23
2023-04-07T17:42:04.924Z,31.93
2023-04-07T17:47:08.245Z,29.97
2023-04-07T17:52:11.667Z,34.47
2023-04-07T17:57:16.383Z,31.33
2023-04-07T18:02:20.155Z,33.07
2023-04-07T18:07:24.305Z,29.80
2023-04-07T18:12:27.606Z,31.23
2023-04-07T18:17:31.402Z,33.83
2023-04-07T18:22:34.809Z,37.23
2023-04-07T18:27:38.286Z,34.47
2023-04-07T18:32:41.975Z,34.63
2023-04-07T18:37:45.567Z,34.63
2023-04-07T18:42:48.985Z,36.77
2023-04-07T18:47:52.699Z,37.97
2023-04-07T18:52:56.442Z,32.53
2023-04-07T18:57:59.669Z,37.13
2023-04-07T19:03:04.070Z,34.53
2023-04-07T19:08:08.033Z,37.23
2023-04-07T19:13:16.170Z,46.80
2023-04-07T19:18:20.061Z,46.07
2023-04-07T19:23:23.704Z,44.07
2023-04-07T19:28:28.424Z,46.27
2023-04-07T19:33:31.826Z,42.37
2023-04-07T19:38:35.300Z,47.77
2023-04-07T19:43:38.723Z,49.83
2023-04-07T19:48:42.939Z,50.20
2023-04-07T19:53:46.751Z,54.63
2023-04-07T19:58:50.471Z,49.23
2023-04-07T20:03:53.911Z,52.23
2023-04-07T20:08:59.046Z,53.40
2023-04-07T20:14:03.310Z,55.27
2023-04-07T20:19:06.606Z,50.83
2023-04-07T20:24:09.720Z,51.60
2023-04-07T20:29:13.091Z,52.50
2023-04-07T20:34:17.016Z,56.23
2023-04-07T20:39:20.569Z,56.40
2023-04-07T20:44:24.150Z,64.60
2023-04-07T20:49:29.377Z,64.13
2023-04-07T20:54:34.343Z,62.80
2023-04-07T20:59:37.493Z,65.30
2023-04-07T21:04:41.025Z,68.23
2023-04-07T21:09:44.514Z,69.10
2023-04-07T21:14:47.635Z,66.73
2023-04-07T21:19:51.505Z,68.37
2023-04-07T21:24:56.189Z,62.50
2023-04-07T21:30:00.543Z,64.50
2023-04-07T21:35:04.604Z,59.10
2023-04-07T21:40:08.854Z,59.83
2023-04-07T21:45:13.182Z,62.03
2023-04-07T21:50:17.161Z,54.63
2023-04-07T21:55:21.073Z,53.97
2023-04-07T22:00:24.544Z,52.30
2023-04-07T22:05:28.440Z,59.27
2023-04-07T22:10:31.929Z,55.73
2023-04-07T22:15:35.518Z,58.23
2023-04-07T22:20:39.029Z,57.40
2023-04-07T22:25:42.211Z,60.97
2023-04-07T22:30:45.906Z,64.13
2023-04-07T22:35:49.331Z,60.60
2023-04-07T22:40:52.450Z,62.27
2023-04-07T22:45:55.935Z,60.90
2023-04-07T22:50:59.195Z,73.27
2023-04-07T22:56:03.048Z,69.57
2023-04-07T23:01:06.222Z,57.10
2023-04-07T23:06:09.680Z,59.67
2023-04-07T23:11:12.925Z,52.13
2023-04-07T23:16:16.740Z,62.83
2023-04-07T23:21:20.354Z,62.37
2023-04-07T23:26:23.937Z,67.77
2023-04-07T23:31:28.595Z,62.27
2023-04-07T23:36:32.565Z,60.23
2023-04-07T23:41:35.872Z,66.33
2023-04-07T23:46:39.101Z,64.57
2023-04-07T23:51:42.170Z,63.00
2023-04-07T23:56:45.567Z,67.13
